Time;durP1;ratioP1;P1;durP2;ratioP2;P2;SDS_P1;SDS_P2;PMS_P1;PMS_P2;Temp;Humidity;BMP_temperature;BMP_pressure;BME280_temperature;BME280_humidity;BME280_pressure;Samples;Min_cycle;Max_cycle;Signal;HPM_P1;HPM_P2
2021/04/04 00:00:02;;;;;;;8.88;5.63;;;23.40;29.80;;;;;;6150100;27;81640;-67
2021/04/04 00:03:12;;;;;;;11.10;6.07;;;23.40;29.80;;;;;;6145138;27;83573;-67
2021/04/04 00:06:13;;;;;;;10.15;5.85;;;23.40;30.00;;;;;;6164977;28;80413;-67
2021/04/04 00:09:15;;;;;;;11.65;6.68;;;23.30;29.80;;;;;;6149795;28;81362;-67
2021/04/04 00:12:15;;;;;;;11.70;6.30;;;23.40;29.90;;;;;;6158759;27;80402;-66
2021/04/04 00:15:16;;;;;;;11.20;7.03;;;23.30;29.80;;;;;;6149886;28;81900;-66
2021/04/04 00:18:16;;;;;;;11.73;6.57;;;23.30;29.80;;;;;;6154567;28;81045;-66
2021/04/04 00:21:17;;;;;;;12.48;6.72;;;23.30;29.80;;;;;;6163972;27;82731;-66
2021/04/04 00:24:17;;;;;;;12.23;6.60;;;23.30;29.80;;;;;;6154322;28;81865;-68
2021/04/04 00:27:18;;;;;;;12.77;6.90;;;23.30;29.80;;;;;;6148481;27;80677;-66
2021/04/04 00:30:18;;;;;;;11.63;6.28;;;23.30;29.80;;;;;;6158169;28;80960;-66
2021/04/04 00:33:19;;;;;;;15.80;7.63;;;23.30;29.80;;;;;;6158383;27;85140;-66
2021/04/04 00:36:19;;;;;;;13.52;7.53;;;23.30;29.90;;;;;;6147877;28;80817;-67
2021/04/04 00:39:20;;;;;;;12.77;7.10;;;23.30;29.80;;;;;;6153512;27;80355;-66
2021/04/04 00:42:20;;;;;;;15.70;7.45;;;23.30;29.90;;;;;;6160519;27;80708;-67
2021/04/04 00:45:21;;;;;;;14.45;7.40;;;23.30;29.90;;;;;;6153399;28;84970;-67
2021/04/04 00:48:21;;;;;;;14.45;7.63;;;23.30;29.90;;;;;;6157139;28;81272;-66
2021/04/04 00:51:22;;;;;;;12.70;7.45;;;23.30;29.90;;;;;;6147428;27;81626;-66
2021/04/04 00:54:23;;;;;;;12.63;7.45;;;23.30;29.90;;;;;;6149379;27;83956;-67
2021/04/04 00:57:23;;;;;;;15.40;8.57;;;23.30;29.80;;;;;;6145596;27;81148;-66
2021/04/04 01:00:24;;;;;;;12.13;7.13;;;23.30;29.80;;;;;;6165214;28;81057;-65
2021/04/04 01:03:25;;;;;;;14.30;7.30;;;23.30;29.70;;;;;;6157488;27;81387;-65
2021/04/04 01:06:25;;;;;;;12.55;7.38;;;23.30;29.70;;;;;;6157578;27;81223;-67
2021/04/04 01:09:26;;;;;;;13.80;7.55;;;23.20;29.70;;;;;;6149167;27;82472;-67
2021/04/04 01:12:26;;;;;;;12.38;7.78;;;23.20;29.70;;;;;;6155990;28;82834;-67
2021/04/04 01:15:27;;;;;;;15.45;8.27;;;23.20;29.60;;;;;;6157719;27;81113;-67
2021/04/04 01:18:27;;;;;;;15.80;8.35;;;23.20;29.60;;;;;;6157559;28;82644;-67
2021/04/04 01:21:28;;;;;;;15.18;8.48;;;23.20;29.70;;;;;;6158498;28;80973;-68
2021/04/04 01:24:28;;;;;;;14.20;8.15;;;23.20;29.60;;;;;;6152898;28;81485;-67
2021/04/04 01:27:29;;;;;;;15.77;8.38;;;23.20;29.50;;;;;;6128593;27;80428;-67
2021/04/04 01:30:29;;;;;;;13.98;8.13;;;23.20;29.60;;;;;;6155963;28;81182;-67
2021/04/04 01:33:30;;;;;;;17.15;8.18;;;23.20;29.60;;;;;;6138693;27;80421;-67
2021/04/04 01:36:31;;;;;;;15.10;8.50;;;23.20;29.60;;;;;;6149330;28;80985;-67
2021/04/04 01:39:32;;;;;;;17.15;9.07;;;23.20;29.50;;;;;;6139905;27;80683;-67
2021/04/04 01:42:32;;;;;;;16.08;8.57;;;23.20;29.50;;;;;;6156284;27;81701;-68
2021/04/04 01:45:33;;;;;;;14.90;7.80;;;23.20;29.50;;;;;;6167072;28;80652;-67
2021/04/04 01:48:34;;;;;;;14.32;8.23;;;23.20;29.50;;;;;;6152017;28;80290;-67
2021/04/04 01:51:34;;;;;;;15.50;7.90;;;23.20;29.60;;;;;;6132031;27;81127;-67
2021/04/04 01:54:35;;;;;;;16.55;8.48;;;23.20;29.50;;;;;;6165152;28;80759;-67
2021/04/04 01:57:35;;;;;;;15.32;8.20;;;23.20;29.50;;;;;;6151122;27;83520;-67
2021/04/04 02:00:36;;;;;;;15.32;8.95;;;23.20;29.60;;;;;;6165579;27;80878;-67
2021/04/04 02:03:36;;;;;;;17.25;9.20;;;23.20;29.50;;;;;;6152758;27;83222;-67
2021/04/04 02:06:37;;;;;;;16.27;8.90;;;23.20;29.60;;;;;;6147593;28;81448;-66
2021/04/04 02:09:38;;;;;;;15.27;8.75;;;23.20;29.60;;;;;;6148778;28;87325;-67
2021/04/04 02:12:38;;;;;;;14.88;7.63;;;23.10;29.60;;;;;;6139304;27;80559;-66
2021/04/04 02:15:39;;;;;;;14.38;9.10;;;23.10;29.60;;;;;;6155213;28;80874;-66
2021/04/04 02:18:39;;;;;;;15.90;8.07;;;23.20;29.50;;;;;;6152019;27;81124;-67
2021/04/04 02:21:40;;;;;;;14.43;8.15;;;23.10;29.50;;;;;;6168392;27;81490;-66
2021/04/04 02:24:40;;;;;;;16.13;8.90;;;23.20;29.50;;;;;;6148693;28;81734;-66
2021/04/04 02:27:41;;;;;;;14.60;9.05;;;23.10;29.50;;;;;;6154811;28;80814;-67
2021/04/04 02:30:41;;;;;;;15.38;8.38;;;23.10;29.60;;;;;;6155786;27;83556;-67
2021/04/04 02:33:42;;;;;;;13.07;7.88;;;23.10;29.50;;;;;;6152187;27;81294;-67
2021/04/04 02:36:42;;;;;;;15.05;7.93;;;23.10;29.50;;;;;;6144613;27;80395;-67
2021/04/04 02:39:43;;;;;;;13.68;8.23;;;23.10;29.50;;;;;;6144415;28;80475;-67
2021/04/04 02:42:43;;;;;;;14.43;7.95;;;23.10;29.60;;;;;;6129476;28;84049;-66
2021/04/04 02:45:44;;;;;;;14.15;8.07;;;23.10;29.60;;;;;;6154675;28;81506;-66
2021/04/04 02:48:45;;;;;;;15.88;7.45;;;23.10;29.60;;;;;;6155271;27;80553;-67
2021/04/04 02:51:45;;;;;;;13.93;8.15;;;23.10;29.60;;;;;;6151953;27;80716;-66
2021/04/04 02:54:46;;;;;;;14.85;7.70;;;23.10;29.60;;;;;;6139794;27;80901;-65
2021/04/04 02:57:46;;;;;;;15.80;8.38;;;23.10;29.60;;;;;;6150412;27;80880;-67
2021/04/04 03:00:47;;;;;;;15.45;7.53;;;23.10;29.70;;;;;;6158543;27;80901;-66
2021/04/04 03:03:47;;;;;;;13.77;7.60;;;23.10;29.70;;;;;;6146445;27;81063;-66
2021/04/04 03:06:48;;;;;;;14.77;7.40;;;23.10;29.70;;;;;;6152251;27;81635;-66
2021/04/04 03:09:48;;;;;;;12.65;7.50;;;23.10;29.70;;;;;;6163230;27;80685;-67
2021/04/04 03:12:49;;;;;;;15.18;8.55;;;23.10;29.70;;;;;;6141106;27;84214;-66
2021/04/04 03:15:49;;;;;;;14.65;7.97;;;23.10;29.60;;;;;;6154763;28;80604;-66
2021/04/04 03:18:50;;;;;;;14.80;7.95;;;23.10;29.60;;;;;;6154045;27;87769;-66
2021/04/04 03:21:50;;;;;;;11.18;7.20;;;23.10;29.60;;;;;;6157927;28;80825;-67
2021/04/04 03:24:51;;;;;;;14.82;7.90;;;23.20;29.60;;;;;;6148384;27;81410;-66
2021/04/04 03:27:51;;;;;;;12.73;7.93;;;23.10;29.60;;;;;;6162562;28;81586;-65
2021/04/04 03:30:52;;;;;;;15.18;7.65;;;23.10;29.70;;;;;;6153463;28;80587;-67
2021/04/04 03:33:53;;;;;;;16.92;8.77;;;23.10;29.70;;;;;;6168204;27;80735;-67
2021/04/04 03:36:53;;;;;;;13.32;7.50;;;23.10;29.80;;;;;;6151497;27;81183;-66
2021/04/04 03:39:54;;;;;;;17.33;8.68;;;23.10;29.80;;;;;;6124088;28;81501;-66
2021/04/04 03:42:54;;;;;;;13.63;7.53;;;23.10;29.80;;;;;;6148300;28;81406;-66
2021/04/04 03:45:55;;;;;;;13.75;7.50;;;23.10;29.90;;;;;;6153318;28;80725;-65
2021/04/04 03:48:55;;;;;;;12.77;7.75;;;23.10;30.00;;;;;;6138760;28;81520;-65
2021/04/04 03:51:56;;;;;;;14.25;7.93;;;23.20;29.90;;;;;;6155006;28;81285;-65
2021/04/04 03:54:57;;;;;;;13.60;7.22;;;23.20;29.70;;;;;;6155529;27;81181;-65
2021/04/04 03:57:57;;;;;;;11.68;6.63;;;23.20;29.50;;;;;;6151286;28;81142;-65
2021/04/04 04:00:58;;;;;;;11.77;6.68;;;23.20;29.40;;;;;;6150115;28;80612;-66
2021/04/04 04:03:58;;;;;;;10.82;5.93;;;23.20;29.40;;;;;;6148533;28;82554;-65
2021/04/04 04:06:59;;;;;;;12.77;6.88;;;23.20;29.50;;;;;;6158818;27;82008;-65
2021/04/04 04:09:59;;;;;;;10.40;6.00;;;23.30;29.20;;;;;;6158032;28;81082;-67
2021/04/04 04:13:00;;;;;;;12.25;5.78;;;23.20;29.10;;;;;;6158460;27;80287;-66
2021/04/04 04:16:00;;;;;;;9.90;5.95;;;23.20;29.10;;;;;;6156516;27;80296;-66
2021/04/04 04:19:01;;;;;;;12.45;5.82;;;23.20;29.10;;;;;;6154047;28;81112;-66
2021/04/04 04:22:01;;;;;;;10.18;5.72;;;23.30;29.00;;;;;;6155220;28;80609;-66
2021/04/04 04:25:02;;;;;;;8.50;5.40;;;23.30;29.00;;;;;;6147836;28;80279;-66
2021/04/04 04:28:02;;;;;;;7.20;4.47;;;23.30;28.80;;;;;;6132505;27;81102;-65
2021/04/04 04:31:03;;;;;;;9.77;5.15;;;23.30;28.60;;;;;;6153240;28;80849;-67
2021/04/04 04:34:03;;;;;;;9.40;4.72;;;23.40;28.60;;;;;;6129791;27;80425;-66
2021/04/04 04:37:04;;;;;;;8.77;4.85;;;23.30;28.60;;;;;;6145926;28;81747;-66
2021/04/04 04:40:04;;;;;;;7.88;4.68;;;23.40;28.30;;;;;;6151432;27;80689;-65
2021/04/04 04:43:05;;;;;;;7.93;4.60;;;23.40;28.40;;;;;;6147780;28;80114;-66
2021/04/04 04:46:05;;;;;;;7.68;5.05;;;23.50;28.60;;;;;;6166952;28;80917;-64
2021/04/04 04:49:06;;;;;;;9.13;4.68;;;23.50;29.00;;;;;;6153263;27;81966;-63
2021/04/04 04:52:07;;;;;;;7.72;4.20;;;23.50;28.40;;;;;;6167239;27;80854;-63
2021/04/04 04:55:07;;;;;;;8.48;4.55;;;23.50;28.40;;;;;;6160036;27;81553;-66
2021/04/04 04:58:08;;;;;;;9.25;4.43;;;23.50;28.20;;;;;;6159816;27;81415;-70
2021/04/04 05:01:08;;;;;;;8.23;4.55;;;23.50;28.40;;;;;;6163233;28;81984;-67
2021/04/04 05:04:09;;;;;;;9.00;4.55;;;23.60;28.60;;;;;;6151012;27;80910;-68
2021/04/04 05:07:09;;;;;;;9.55;4.63;;;23.60;28.70;;;;;;6156643;27;80698;-70
2021/04/04 05:10:10;;;;;;;9.07;5.05;;;23.60;28.80;;;;;;6157824;27;81695;-66
2021/04/04 05:13:10;;;;;;;7.18;3.90;;;23.60;29.00;;;;;;6167464;27;80812;-68
2021/04/04 05:16:11;;;;;;;8.55;4.43;;;23.60;29.00;;;;;;6153782;28;80434;-66
2021/04/04 05:19:12;;;;;;;6.93;3.95;;;23.60;29.10;;;;;;6130191;27;82481;-67
2021/04/04 05:22:12;;;;;;;9.57;4.45;;;23.60;29.00;;;;;;6153333;28;80792;-66
2021/04/04 05:25:13;;;;;;;11.43;4.88;;;23.60;29.10;;;;;;6148418;28;80612;-66
2021/04/04 05:28:13;;;;;;;8.52;4.18;;;23.60;28.90;;;;;;6156756;27;81574;-67
2021/04/04 05:31:14;;;;;;;7.28;3.83;;;23.60;28.80;;;;;;6164831;27;80235;-66
2021/04/04 05:34:15;;;;;;;9.32;4.20;;;23.60;28.80;;;;;;6152079;28;80212;-66
2021/04/04 05:37:15;;;;;;;8.73;3.67;;;23.60;28.70;;;;;;6135500;27;81638;-65
2021/04/04 05:40:16;;;;;;;7.95;4.22;;;23.70;28.70;;;;;;6155365;27;81142;-66
2021/04/04 05:43:16;;;;;;;7.18;3.67;;;23.70;28.70;;;;;;6148482;27;80939;-66
2021/04/04 05:46:17;;;;;;;6.20;3.78;;;23.70;28.70;;;;;;6152255;27;83314;-66
2021/04/04 05:49:17;;;;;;;9.40;3.67;;;23.70;28.70;;;;;;6151104;27;80766;-67
2021/04/04 05:52:18;;;;;;;9.70;4.55;;;23.70;29.10;;;;;;6151540;27;80710;-67
2021/04/04 05:55:19;;;;;;;10.52;3.92;;;23.70;29.50;;;;;;6156180;27;81079;-67
2021/04/04 05:58:19;;;;;;;7.15;3.83;;;23.70;29.90;;;;;;6135159;28;83156;-66
2021/04/04 06:01:20;;;;;;;9.68;4.43;;;23.70;30.00;;;;;;6078758;27;83054;-67
2021/04/04 06:04:20;;;;;;;6.90;4.07;;;23.80;30.10;;;;;;6138825;27;80804;-67
2021/04/04 06:07:21;;;;;;;8.15;3.55;;;23.80;30.10;;;;;;6173793;28;81593;-66
2021/04/04 06:10:21;;;;;;;9.80;4.40;;;23.80;30.30;;;;;;6149290;27;83933;-67
2021/04/04 06:13:22;;;;;;;9.00;4.50;;;23.80;30.10;;;;;;6148157;28;80346;-67
2021/04/04 06:16:22;;;;;;;6.82;3.75;;;23.80;30.50;;;;;;6138049;28;81430;-67
2021/04/04 06:19:23;;;;;;;8.60;4.00;;;23.80;30.40;;;;;;6162099;28;81421;-66
2021/04/04 06:22:24;;;;;;;6.88;3.80;;;23.80;30.50;;;;;;6144335;28;80502;-66
2021/04/04 06:25:24;;;;;;;9.85;4.78;;;23.80;30.50;;;;;;6154592;28;81532;-67
2021/04/04 06:28:25;;;;;;;10.73;4.53;;;23.80;30.60;;;;;;6142360;27;81005;-66
2021/04/04 06:31:25;;;;;;;8.32;4.03;;;23.80;30.50;;;;;;6156806;27;81460;-68
2021/04/04 06:34:26;;;;;;;8.95;3.72;;;23.80;30.40;;;;;;6131047;27;81317;-67
2021/04/04 06:37:26;;;;;;;12.23;3.63;;;23.80;30.80;;;;;;6158702;28;81375;-66
2021/04/04 06:40:27;;;;;;;8.77;3.75;;;23.80;30.70;;;;;;6128933;28;80758;-67
2021/04/04 06:43:28;;;;;;;10.20;3.78;;;23.80;30.90;;;;;;6139108;27;81404;-65
2021/04/04 06:46:28;;;;;;;8.85;3.85;;;23.80;31.10;;;;;;6149708;28;82912;-66
2021/04/04 06:49:29;;;;;;;9.05;4.05;;;23.90;30.90;;;;;;6157387;27;82101;-66
2021/04/04 06:52:29;;;;;;;7.82;4.10;;;23.90;31.40;;;;;;6139071;27;82189;-66
2021/04/04 06:55:30;;;;;;;9.23;3.90;;;23.80;31.00;;;;;;6145976;27;80658;-68
2021/04/04 06:58:30;;;;;;;9.70;4.60;;;23.80;30.40;;;;;;6128218;27;81436;-66
2021/04/04 07:01:32;;;;;;;8.48;4.07;;;23.80;30.30;;;;;;6145847;28;80399;-64
2021/04/04 07:04:32;;;;;;;8.20;4.22;;;23.80;30.10;;;;;;6160866;28;80634;-65
2021/04/04 07:07:33;;;;;;;9.32;4.20;;;23.80;30.20;;;;;;6150979;27;81406;-67
2021/04/04 07:10:33;;;;;;;8.63;4.25;;;23.70;31.00;;;;;;6158806;27;80540;-70
2021/04/04 07:13:38;;;;;;;6.60;3.78;;;23.70;30.20;;;;;;6155173;27;80950;-65
2021/04/04 07:16:38;;;;;;;7.32;4.18;;;23.70;31.00;;;;;;6140178;27;81539;-68
2021/04/04 07:19:39;;;;;;;38.00;5.20;;;23.70;31.30;;;;;;6141188;28;81736;-70
2021/04/04 07:22:39;;;;;;;7.25;3.83;;;23.70;30.00;;;;;;6160470;27;81996;-68
2021/04/04 07:25:40;;;;;;;6.78;4.20;;;23.60;30.10;;;;;;6156202;28;80728;-69
2021/04/04 07:28:40;;;;;;;9.18;3.50;;;23.60;31.00;;;;;;6158829;27;80677;-70
2021/04/04 07:31:41;;;;;;;5.93;3.63;;;23.60;30.20;;;;;;6155560;28;80604;-67
2021/04/04 07:34:41;;;;;;;6.40;3.30;;;23.60;31.60;;;;;;6123337;27;80515;-68
2021/04/04 07:37:42;;;;;;;8.43;3.50;;;23.60;30.30;;;;;;6159578;28;80542;-69
2021/04/04 07:40:42;;;;;;;7.53;3.78;;;23.60;30.20;;;;;;6148329;27;81591;-68
2021/04/04 07:43:43;;;;;;;6.70;3.88;;;23.50;30.60;;;;;;6145917;27;80721;-68
2021/04/04 07:46:44;;;;;;;8.00;3.58;;;23.50;30.70;;;;;;6150650;27;80824;-68
2021/04/04 07:49:44;;;;;;;7.50;4.00;;;23.50;30.50;;;;;;6153288;27;80501;-67
2021/04/04 07:52:45;;;;;;;6.75;3.53;;;23.50;30.80;;;;;;6145430;27;83693;-67
2021/04/04 07:55:45;;;;;;;6.15;3.47;;;23.50;30.60;;;;;;6161812;28;81271;-67
2021/04/04 08:12:34;;;;;;;4.95;3.28;;;23.60;30.60;;;;;;6306664;27;84389;-65
2021/04/04 08:15:35;;;;;;;5.18;3.47;;;23.40;31.60;;;;;;6256027;27;80427;-66
2021/04/04 08:18:35;;;;;;;4.80;2.67;;;23.40;30.60;;;;;;6239971;27;80687;-66
2021/04/04 08:21:36;;;;;;;5.50;2.72;;;23.50;30.70;;;;;;6245249;28;90978;-67
2021/04/04 08:24:37;;;;;;;4.70;2.85;;;23.60;30.40;;;;;;6245366;27;81015;-65
2021/04/04 08:27:37;;;;;;;5.88;3.22;;;23.70;30.30;;;;;;6262794;27;80771;-65
2021/04/04 08:30:39;;;;;;;3.55;2.88;;;23.70;30.50;;;;;;6271464;27;80449;-65
2021/04/04 08:33:39;;;;;;;9.65;3.42;;;23.80;30.50;;;;;;6262892;27;80779;-65
2021/04/04 08:36:40;;;;;;;8.98;3.50;;;23.80;30.60;;;;;;6264229;27;87337;-66
2021/04/04 08:39:40;;;;;;;4.22;2.80;;;23.80;30.30;;;;;;6245859;27;80769;-66
2021/04/04 08:42:41;;;;;;;6.30;2.55;;;23.70;30.10;;;;;;6258645;27;80756;-66
2021/04/04 08:45:41;;;;;;;5.65;3.00;;;23.70;30.50;;;;;;6239161;27;80422;-66
2021/04/04 08:48:42;;;;;;;4.97;3.10;;;23.80;30.10;;;;;;6243433;27;81056;-67
2021/04/04 08:51:42;;;;;;;7.10;3.25;;;23.70;30.40;;;;;;6243073;27;80512;-67
2021/04/04 08:54:43;;;;;;;8.80;2.72;;;23.70;30.80;;;;;;6240206;27;80697;-67
2021/04/04 08:57:44;;;;;;;6.45;2.85;;;23.70;30.20;;;;;;6238259;27;80759;-66
2021/04/04 09:00:44;;;;;;;3.50;2.65;;;23.80;30.70;;;;;;6257824;27;81363;-64
2021/04/04 09:03:45;;;;;;;4.75;2.60;;;23.80;30.50;;;;;;6218851;27;81928;-66
2021/04/04 09:06:46;;;;;;;4.97;2.72;;;23.80;31.60;;;;;;6211989;27;80583;-67
2021/04/04 09:09:49;;;;;;;4.57;2.72;;;23.80;30.70;;;;;;6254721;27;80413;-67
2021/04/04 09:12:50;;;;;;;6.05;2.65;;;23.80;30.80;;;;;;6218175;27;80329;-69
2021/04/04 09:15:50;;;;;;;5.35;2.70;;;23.90;30.60;;;;;;6259044;27;81810;-68
2021/04/04 09:18:51;;;;;;;2.72;2.28;;;23.90;31.80;;;;;;6228774;27;80168;-68
2021/04/04 09:21:51;;;;;;;5.53;2.58;;;23.90;30.70;;;;;;6235594;27;80389;-67
2021/04/04 09:24:52;;;;;;;5.53;2.65;;;23.90;31.40;;;;;;6234754;27;80704;-66
2021/04/04 09:27:52;;;;;;;5.05;2.72;;;23.90;30.70;;;;;;6223218;27;81287;-68
2021/04/04 09:30:53;;;;;;;5.40;3.03;;;23.80;30.40;;;;;;6225030;27;80513;-68
2021/04/04 09:33:54;;;;;;;5.35;2.83;;;23.80;30.60;;;;;;6225192;27;81239;-65
2021/04/04 09:36:54;;;;;;;4.78;3.10;;;23.80;30.30;;;;;;6227509;27;82442;-66
2021/04/04 09:39:55;;;;;;;5.25;2.65;;;23.80;30.40;;;;;;6234496;27;81462;-68
2021/04/04 09:42:56;;;;;;;4.70;2.63;;;23.80;31.20;;;;;;6237009;27;81111;-67
2021/04/04 09:45:56;;;;;;;3.55;2.50;;;23.80;30.80;;;;;;6214483;27;80924;-68
2021/04/04 09:48:57;;;;;;;3.35;2.40;;;23.80;30.70;;;;;;6227339;27;81379;-68
2021/04/04 09:51:57;;;;;;;5.13;2.50;;;23.80;30.80;;;;;;6229712;27;81045;-67
2021/04/04 09:54:58;;;;;;;9.75;2.22;;;23.80;30.70;;;;;;6237491;27;81593;-67
2021/04/04 09:58:00;;;;;;;4.35;2.58;;;23.80;31.60;;;;;;6217472;27;80320;-66
2021/04/04 10:01:01;;;;;;;4.95;2.50;;;23.80;30.90;;;;;;6222237;28;81089;-67
2021/04/04 10:04:02;;;;;;;6.85;2.42;;;23.80;30.80;;;;;;6241929;28;83816;-65
2021/04/04 10:07:02;;;;;;;2.95;2.38;;;23.80;31.00;;;;;;6225555;27;81357;-67
2021/04/04 10:10:03;;;;;;;3.17;2.03;;;23.80;31.10;;;;;;6223317;27;81239;-67
2021/04/04 10:13:03;;;;;;;4.30;2.00;;;23.80;30.50;;;;;;6215345;27;84935;-65
2021/04/04 10:16:04;;;;;;;4.22;2.33;;;23.80;30.30;;;;;;6222417;27;81004;-60
2021/04/04 10:19:04;;;;;;;3.88;2.42;;;23.80;30.00;;;;;;6227784;27;80923;-65
2021/04/04 10:22:05;;;;;;;4.97;2.28;;;23.70;30.00;;;;;;6233871;27;81397;-65
2021/04/04 10:25:05;;;;;;;7.28;2.67;;;23.70;30.00;;;;;;6231212;27;80646;-67
2021/04/04 10:28:06;;;;;;;3.05;2.53;;;23.70;30.30;;;;;;6222283;27;80627;-66
2021/04/04 10:31:06;;;;;;;3.40;2.28;;;23.70;30.80;;;;;;6224947;27;81541;-68
2021/04/04 10:34:07;;;;;;;6.85;2.60;;;23.80;30.60;;;;;;6225565;27;80596;-67
2021/04/04 10:37:08;;;;;;;3.55;2.30;;;23.80;30.50;;;;;;6224786;28;82692;-68
2021/04/04 10:40:08;;;;;;;2.25;2.03;;;23.80;30.50;;;;;;6223813;28;80737;-71
2021/04/04 10:43:09;;;;;;;5.88;2.40;;;23.70;30.00;;;;;;6223155;27;80353;-68
2021/04/04 10:46:09;;;;;;;4.80;3.10;;;23.70;29.80;;;;;;6219072;27;81132;-68
2021/04/04 10:49:10;;;;;;;3.78;2.10;;;23.70;29.50;;;;;;6236414;27;81624;-68
2021/04/04 10:52:10;;;;;;;13.98;3.28;;;23.80;30.90;;;;;;6233094;27;80589;-68
2021/04/04 10:55:11;;;;;;;17.83;5.03;;;23.80;30.90;;;;;;6229452;28;80865;-67
2021/04/04 10:58:11;;;;;;;15.07;3.97;;;23.80;30.70;;;;;;6225968;27;80609;-67
2021/04/04 11:01:12;;;;;;;12.95;7.05;;;23.80;31.00;;;;;;6237570;27;81061;-69
2021/04/04 11:04:13;;;;;;;28.88;14.05;;;23.80;30.90;;;;;;6246227;27;82974;-68
2021/04/04 11:07:13;;;;;;;24.60;15.52;;;23.90;31.00;;;;;;6243163;27;83356;-67
2021/04/04 11:10:14;;;;;;;28.33;19.92;;;23.90;31.70;;;;;;6228818;27;85954;-66
2021/04/04 11:13:14;;;;;;;31.58;17.88;;;23.90;31.70;;;;;;6223814;27;83321;-66
2021/04/04 11:16:15;;;;;;;27.30;16.52;;;23.90;33.30;;;;;;6222634;27;84698;-71
2021/04/04 11:19:16;;;;;;;31.65;18.77;;;24.00;33.10;;;;;;6230837;27;83461;-66
2021/04/04 11:22:16;;;;;;;31.17;20.48;;;24.00;34.50;;;;;;6233839;27;83919;-65
2021/04/04 11:25:17;;;;;;;23.38;15.48;;;24.00;34.80;;;;;;6229431;27;83500;-67
2021/04/04 11:28:18;;;;;;;25.98;15.30;;;24.00;31.80;;;;;;6236878;27;83572;-66
2021/04/04 11:31:18;;;;;;;24.83;14.90;;;24.00;31.40;;;;;;6246496;27;89189;-65
2021/04/04 11:34:19;;;;;;;18.88;13.25;;;23.90;31.20;;;;;;6226894;27;87071;-67
2021/04/04 11:37:19;;;;;;;17.60;13.52;;;23.90;30.80;;;;;;6219420;28;84230;-67
2021/04/04 11:40:20;;;;;;;18.02;11.95;;;24.00;31.20;;;;;;6221914;27;87949;-66
2021/04/04 11:43:20;;;;;;;15.55;11.90;;;23.90;30.90;;;;;;6213634;27;83473;-66
2021/04/04 11:46:21;;;;;;;18.98;11.45;;;24.00;31.80;;;;;;6220293;27;83870;-68
2021/04/04 11:49:21;;;;;;;16.92;10.38;;;24.00;31.80;;;;;;6225493;27;83685;-66
2021/04/04 11:52:22;;;;;;;16.00;10.57;;;24.00;31.20;;;;;;6220614;27;83018;-67
2021/04/04 11:55:22;;;;;;;20.73;10.02;;;24.00;30.80;;;;;;6214162;28;85545;-67
2021/04/04 11:58:23;;;;;;;15.38;9.13;;;24.00;31.10;;;;;;6216748;28;83455;-68
2021/04/04 12:01:23;;;;;;;16.48;8.65;;;24.00;30.80;;;;;;6229473;27;85881;-67
2021/04/04 12:04:35;;;;;;;12.93;7.78;;;24.00;31.10;;;;;;6217642;28;80606;-67
2021/04/04 12:07:35;;;;;;;11.90;7.53;;;24.00;30.30;;;;;;6223878;27;80607;-66
2021/04/04 12:10:36;;;;;;;10.77;6.63;;;24.00;30.00;;;;;;6229775;27;81248;-67
2021/04/04 12:13:36;;;;;;;10.73;6.68;;;24.00;30.00;;;;;;6244170;27;81682;-66
2021/04/04 12:16:37;;;;;;;8.70;6.80;;;24.00;30.20;;;;;;6215373;27;80755;-66
2021/04/04 12:19:37;;;;;;;8.57;5.93;;;24.00;30.90;;;;;;6248486;27;80582;-66
2021/04/04 12:22:38;;;;;;;7.22;5.32;;;24.00;30.10;;;;;;6231035;27;80892;-65
2021/04/04 12:25:38;;;;;;;9.15;5.60;;;24.10;29.90;;;;;;6258957;27;81440;-66
2021/04/04 12:28:39;;;;;;;9.23;4.97;;;24.00;30.10;;;;;;6222708;27;80483;-67
2021/04/04 12:31:40;;;;;;;9.75;5.18;;;24.00;30.90;;;;;;6229145;27;81246;-66
2021/04/04 12:34:40;;;;;;;7.80;4.80;;;24.00;29.90;;;;;;6246057;27;80717;-66
2021/04/04 12:37:41;;;;;;;6.50;4.60;;;24.00;29.80;;;;;;6235681;27;83665;-66
2021/04/04 12:40:41;;;;;;;7.10;4.30;;;24.00;30.00;;;;;;6219846;27;80981;-67
2021/04/04 12:43:42;;;;;;;8.05;4.38;;;24.00;30.00;;;;;;6218746;27;81664;-67
2021/04/04 12:46:43;;;;;;;6.32;3.90;;;24.00;30.50;;;;;;6217617;27;80402;-66
2021/04/04 12:49:43;;;;;;;5.65;3.47;;;24.00;29.90;;;;;;6225573;27;80668;-66
2021/04/04 12:52:44;;;;;;;8.20;3.38;;;24.00;30.00;;;;;;6194028;27;80601;-65
2021/04/04 12:55:44;;;;;;;6.03;3.20;;;24.00;29.90;;;;;;6226704;28;80773;-66
2021/04/04 12:58:45;;;;;;;7.20;3.35;;;24.00;30.40;;;;;;6215413;27;80945;-66
2021/04/04 13:01:45;;;;;;;4.53;3.00;;;24.00;30.80;;;;;;6224303;28;80714;-67
2021/04/04 13:04:46;;;;;;;4.40;2.90;;;24.00;31.10;;;;;;6221985;28;80920;-67
2021/04/04 13:07:46;;;;;;;4.07;2.70;;;24.00;30.80;;;;;;6233763;27;80592;-68
2021/04/04 13:10:47;;;;;;;3.92;2.65;;;23.90;30.40;;;;;;6237428;27;83409;-68
2021/04/04 13:13:48;;;;;;;7.22;3.30;;;23.90;30.50;;;;;;6228866;27;81769;-67
2021/04/04 13:16:48;;;;;;;4.70;2.78;;;23.90;30.50;;;;;;6228093;27;80546;-69
2021/04/04 13:19:49;;;;;;;4.68;2.97;;;23.90;30.10;;;;;;6242122;27;80323;-68
2021/04/04 13:22:49;;;;;;;4.80;2.15;;;23.80;29.90;;;;;;6232390;27;81440;-68
2021/04/04 13:25:50;;;;;;;4.50;2.78;;;23.80;29.80;;;;;;6238366;27;81648;-68
2021/04/04 13:28:51;;;;;;;3.05;2.40;;;23.80;29.90;;;;;;6239854;27;81105;-69
2021/04/04 13:31:51;;;;;;;4.95;2.53;;;23.80;29.90;;;;;;6224689;27;80684;-67
2021/04/04 13:34:52;;;;;;;3.50;2.50;;;23.80;30.10;;;;;;6227177;27;89367;-67
2021/04/04 13:37:52;;;;;;;5.03;2.72;;;23.80;29.70;;;;;;6244465;27;81443;-66
2021/04/04 13:40:53;;;;;;;2.75;2.05;;;23.80;30.40;;;;;;6222235;28;80689;-67
2021/04/04 13:43:53;;;;;;;3.97;2.40;;;23.80;29.80;;;;;;6225029;28;81791;-67
2021/04/04 13:46:54;;;;;;;3.88;2.65;;;23.80;29.50;;;;;;6228092;27;80925;-65
2021/04/04 13:49:54;;;;;;;4.20;2.15;;;23.80;29.90;;;;;;6217970;28;81255;-67
2021/04/04 13:52:55;;;;;;;7.15;2.80;;;23.80;29.80;;;;;;6223269;27;81433;-67
2021/04/04 13:55:56;;;;;;;4.03;2.10;;;23.80;29.90;;;;;;6240339;27;80790;-67
2021/04/04 13:58:56;;;;;;;4.25;2.42;;;23.80;29.60;;;;;;6231616;27;80352;-66
2021/04/04 14:01:57;;;;;;;3.70;2.25;;;23.80;29.30;;;;;;6230230;27;83288;-67
2021/04/04 14:04:57;;;;;;;3.60;2.40;;;23.80;29.30;;;;;;6222071;27;81338;-67
2021/04/04 14:07:58;;;;;;;3.05;2.28;;;23.80;29.20;;;;;;6222074;27;81628;-67
2021/04/04 14:10:58;;;;;;;4.05;2.80;;;23.80;29.10;;;;;;6229445;27;81386;-68
2021/04/04 14:13:59;;;;;;;3.95;2.35;;;23.80;29.10;;;;;;6239040;27;80573;-66
2021/04/04 14:16:59;;;;;;;4.80;2.92;;;23.80;29.40;;;;;;6249915;27;81743;-67
2021/04/04 14:20:00;;;;;;;5.03;2.65;;;23.80;29.50;;;;;;6239792;27;81367;-67
2021/04/04 14:23:00;;;;;;;3.47;2.30;;;23.80;29.80;;;;;;6232442;27;80798;-67
2021/04/04 14:26:01;;;;;;;3.50;2.33;;;23.80;29.50;;;;;;6227731;27;80609;-66
2021/04/04 14:29:02;;;;;;;3.78;2.67;;;23.80;29.60;;;;;;6218870;28;80974;-67
2021/04/04 14:32:02;;;;;;;4.40;3.15;;;23.80;29.90;;;;;;6218282;27;80731;-69
2021/04/04 14:35:03;;;;;;;3.47;2.42;;;23.80;30.00;;;;;;6223775;27;80877;-68
2021/04/04 14:38:03;;;;;;;4.90;2.88;;;23.80;29.70;;;;;;6226388;27;81737;-67
2021/04/04 14:41:04;;;;;;;5.10;2.75;;;23.80;30.30;;;;;;6227731;28;80486;-69
2021/04/04 14:47:20;;;;;;;3.15;2.40;;;23.80;29.40;;;;;;6224342;27;81592;-69
2021/04/04 14:50:21;;;;;;;5.15;2.92;;;23.80;29.70;;;;;;6222288;28;80395;-68
2021/04/04 14:53:21;;;;;;;3.38;2.35;;;23.80;29.30;;;;;;6223718;27;80633;-67
2021/04/04 14:56:22;;;;;;;14.88;2.88;;;23.80;29.20;;;;;;6224564;27;80358;-68
2021/04/04 14:59:22;;;;;;;4.15;2.50;;;23.80;29.50;;;;;;6239309;27;82968;-68
2021/04/04 15:02:30;;;;;;;5.32;2.58;;;23.80;29.20;;;;;;6220003;27;82251;-66
2021/04/04 15:05:31;;;;;;;6.15;3.13;;;23.80;29.20;;;;;;6231514;28;82051;-67
2021/04/04 15:08:31;;;;;;;5.35;3.20;;;23.80;30.20;;;;;;6223896;27;80367;-69
2021/04/04 15:11:32;;;;;;;3.92;2.63;;;23.80;29.50;;;;;;6216631;28;80689;-70
2021/04/04 15:14:32;;;;;;;4.60;2.60;;;23.80;29.70;;;;;;6212562;28;83222;-68
2021/04/04 15:17:33;;;;;;;6.65;2.90;;;23.80;29.60;;;;;;6224303;27;80851;-68
2021/04/04 15:20:33;;;;;;;4.32;2.40;;;23.70;29.90;;;;;;6245007;27;80821;-68
2021/04/04 15:23:34;;;;;;;5.15;2.80;;;23.70;29.50;;;;;;6220562;27;80704;-69
2021/04/04 15:26:34;;;;;;;4.85;3.10;;;23.70;29.50;;;;;;6239097;27;81327;-67
2021/04/04 15:29:35;;;;;;;4.63;3.00;;;23.70;30.00;;;;;;6252009;27;80489;-68
2021/04/04 15:32:36;;;;;;;5.60;3.15;;;23.70;30.30;;;;;;6225889;27;83430;-69
2021/04/04 15:35:36;;;;;;;4.00;2.50;;;23.70;29.50;;;;;;6210631;27;81251;-67
2021/04/04 15:38:38;;;;;;;5.22;3.30;;;23.70;29.20;;;;;;6222557;28;80862;-69
2021/04/04 15:41:39;;;;;;;5.30;2.58;;;23.70;29.60;;;;;;6225180;28;83391;-68
2021/04/04 15:44:39;;;;;;;5.15;2.50;;;23.70;29.50;;;;;;6237760;27;83430;-69
2021/04/04 15:47:40;;;;;;;4.85;2.72;;;23.80;29.60;;;;;;6201904;28;80669;-69
2021/04/04 15:50:40;;;;;;;5.57;2.40;;;23.70;29.40;;;;;;6211299;28;81844;-67